Time;durP1;ratioP1;P1;durP2;ratioP2;P2;SDS_P1;SDS_P2;PMS_P1;PMS_P2;Temp;Humidity;BMP_temperature;BMP_pressure;BME280_temperature;BME280_humidity;BME280_pressure;Samples;Min_cycle;Max_cycle;Signal;HPM_P1;HPM_P2
2022/01/24 00:00:00;;;;;;;2.40;2.20;;;9.80;81.40;;;;;;5071887;28;20072;-58
2022/01/24 00:02:28;;;;;;;3.65;2.60;;;9.90;81.50;;;;;;5072571;28;20166;-57
2022/01/24 00:04:54;;;;;;;2.42;2.22;;;9.80;81.40;;;;;;5072616;28;20047;-58
2022/01/24 00:07:22;;;;;;;2.40;2.20;;;9.80;81.40;;;;;;5071391;28;20056;-59
2022/01/24 00:09:49;;;;;;;2.85;2.60;;;9.90;81.50;;;;;;5072438;28;20040;-59
2022/01/24 00:12:19;;;;;;;2.40;2.05;;;9.80;81.40;;;;;;5072028;28;20049;-56
2022/01/24 00:17:41;;;;;;;2.83;2.50;;;9.90;81.50;;;;;;5071403;28;20049;-51
2022/01/24 00:28:03;;;;;;;2.65;2.35;;;9.80;81.40;;;;;;5071916;28;20408;-59
2022/01/24 00:30:29;;;;;;;2.90;2.50;;;9.90;81.50;;;;;;5072231;28;20056;-54
2022/01/24 00:32:55;;;;;;;2.53;2.33;;;9.90;81.50;;;;;;5071570;28;20055;-52
2022/01/24 00:35:20;;;;;;;2.53;2.33;;;9.80;81.40;;;;;;5071393;28;20094;-58
2022/01/24 00:37:46;;;;;;;3.33;2.72;;;9.80;81.40;;;;;;5071681;28;20045;-58
2022/01/24 00:40:12;;;;;;;2.45;2.20;;;9.80;81.40;;;;;;5071604;28;20378;-56
2022/01/24 00:45:11;;;;;;;2.42;2.22;;;9.90;81.50;;;;;;5071709;28;20052;-58
2022/01/24 00:47:50;;;;;;;2.50;2.30;;;9.90;81.50;;;;;;5071658;28;20041;-59
2022/01/24 00:55:46;;;;;;;2.47;2.08;;;9.80;81.40;;;;;;5071842;28;20049;-57
2022/01/24 00:58:12;;;;;;;2.83;2.40;;;9.80;81.40;;;;;;5070992;28;20499;-57
2022/01/24 01:00:37;;;;;;;3.20;2.33;;;9.90;81.40;;;;;;5071766;28;20044;-56
2022/01/24 01:03:04;;;;;;;2.45;2.25;;;9.80;81.40;;;;;;5070910;28;20484;-59
2022/01/24 01:18:53;;;;;;;2.65;2.40;;;9.80;81.40;;;;;;4990913;28;20046;-52
2022/01/24 01:21:19;;;;;;;2.55;2.10;;;9.80;81.40;;;;;;4989146;28;20569;-59
2022/01/24 01:23:53;;;;;;;2.70;2.50;;;9.80;81.40;;;;;;4989845;28;20121;-51
2022/01/24 01:26:58;;;;;;;2.20;2.00;;;9.90;81.50;;;;;;4989359;28;20078;-55
2022/01/24 01:29:21;;;;;;;2.83;2.53;;;9.80;81.40;;;;;;5002924;28;20050;-58
2022/01/24 01:37:45;;;;;;;1.90;1.80;;;9.80;81.50;;;;;;4969553;28;20051;-59
2022/01/24 01:56:20;;;;;;;2.25;1.92;;;9.80;81.40;;;;;;4950402;29;20094;-59
2022/01/24 01:58:46;;;;;;;2.10;1.90;;;9.80;81.40;;;;;;4950339;29;20436;-54
2022/01/24 02:01:12;;;;;;;2.08;1.88;;;9.80;81.40;;;;;;4931384;29;20076;-55
2022/01/24 02:03:37;;;;;;;2.15;1.95;;;9.90;81.40;;;;;;4931683;29;20484;-58
2022/01/24 02:06:03;;;;;;;2.40;2.15;;;9.80;81.40;;;;;;4930842;29;20059;-57
2022/01/24 02:08:31;;;;;;;2.45;1.88;;;9.90;81.50;;;;;;4931912;29;20058;-58
2022/01/24 02:10:58;;;;;;;2.55;2.03;;;9.80;81.40;;;;;;4961645;28;20576;-58
2022/01/24 02:13:25;;;;;;;2.72;2.10;;;9.80;81.40;;;;;;4969903;28;20086;-58
2022/01/24 02:16:08;;;;;;;2.10;1.90;;;9.80;81.40;;;;;;4982922;28;20550;-59
2022/01/24 02:21:25;;;;;;;2.40;2.20;;;9.80;81.40;;;;;;4988079;28;20078;-56
2022/01/24 02:23:52;;;;;;;3.28;2.38;;;9.80;81.40;;;;;;4989625;28;20054;-54
2022/01/24 02:26:21;;;;;;;2.42;2.20;;;9.80;81.40;;;;;;4988828;28;20423;-59
2022/01/24 02:34:34;;;;;;;2.47;2.03;;;9.80;81.40;;;;;;4972714;28;20133;-58
2022/01/24 02:37:09;;;;;;;2.42;2.20;;;9.90;81.40;;;;;;4972663;28;20058;-58
2022/01/24 02:48:24;;;;;;;2.10;1.90;;;9.80;81.40;;;;;;4918158;28;20055;-59
2022/01/24 02:51:15;;;;;;;2.10;1.83;;;9.80;81.40;;;;;;4933146;29;20519;-59
2022/01/24 02:53:41;;;;;;;2.20;2.00;;;9.80;81.40;;;;;;4934415;29;20134;-54
2022/01/24 02:56:07;;;;;;;2.33;2.10;;;9.80;81.40;;;;;;4933821;29;20130;-54
2022/01/24 02:58:33;;;;;;;2.35;1.90;;;9.90;81.40;;;;;;4934537;29;20135;-58
2022/01/24 03:00:59;;;;;;;2.50;2.00;;;9.80;81.40;;;;;;4933002;29;20127;-57
2022/01/24 03:03:25;;;;;;;2.00;1.80;;;9.80;81.40;;;;;;4933383;29;20052;-56
2022/01/24 03:05:51;;;;;;;2.40;2.00;;;9.80;81.40;;;;;;4934207;29;20067;-51
2022/01/24 03:08:20;;;;;;;2.05;1.85;;;9.90;81.40;;;;;;4941163;29;20083;-59
2022/01/24 03:10:47;;;;;;;2.30;1.98;;;9.90;81.40;;;;;;4953347;29;20485;-59
2022/01/24 03:15:48;;;;;;;2.10;1.83;;;9.80;81.40;;;;;;5053753;28;20049;-57
2022/01/24 03:18:14;;;;;;;2.08;1.88;;;9.80;81.40;;;;;;5066265;28;20115;-58
2022/01/24 03:20:40;;;;;;;2.47;2.10;;;9.90;81.40;;;;;;5073902;28;20040;-58
2022/01/24 03:23:06;;;;;;;2.10;1.90;;;9.80;81.40;;;;;;5072485;28;20116;-57
2022/01/24 03:25:32;;;;;;;2.17;1.92;;;9.90;81.40;;;;;;5073640;28;20040;-58
2022/01/24 03:27:58;;;;;;;2.17;1.98;;;9.80;81.30;;;;;;5072638;28;20041;-53
2022/01/24 03:30:25;;;;;;;2.35;2.15;;;9.90;81.30;;;;;;5073722;28;20056;-59
2022/01/24 03:32:51;;;;;;;2.30;2.10;;;9.80;81.30;;;;;;5072978;28;20048;-59
2022/01/24 03:35:17;;;;;;;2.30;2.08;;;9.90;81.40;;;;;;5073213;28;20109;-58
2022/01/24 03:37:43;;;;;;;2.42;2.20;;;9.80;81.30;;;;;;5072950;28;20080;-50
2022/01/24 03:40:09;;;;;;;2.50;2.17;;;9.80;81.30;;;;;;5072955;28;20117;-58
2022/01/24 03:42:37;;;;;;;2.25;1.80;;;9.80;81.30;;;;;;5071550;28;20082;-54
2022/01/24 03:45:06;;;;;;;2.15;1.92;;;9.90;81.30;;;;;;5072804;28;20497;-58
2022/01/24 03:50:06;;;;;;;2.55;2.30;;;9.80;81.30;;;;;;5072736;28;20068;-59
2022/01/24 03:52:31;;;;;;;2.72;2.03;;;9.80;81.30;;;;;;5072672;28;20045;-58
2022/01/24 03:54:58;;;;;;;2.10;1.90;;;9.90;81.30;;;;;;5072038;28;20044;-56
2022/01/24 03:57:25;;;;;;;2.20;1.90;;;9.80;81.30;;;;;;5072900;28;20037;-59
2022/01/24 03:59:51;;;;;;;2.80;2.15;;;9.80;81.30;;;;;;5054678;28;20102;-59
2022/01/24 04:02:18;;;;;;;2.20;1.90;;;9.80;81.30;;;;;;5072535;28;20036;-55
2022/01/24 04:04:44;;;;;;;2.30;2.10;;;9.80;81.20;;;;;;5072447;28;20086;-58
2022/01/24 04:07:10;;;;;;;2.83;2.45;;;9.80;81.30;;;;;;5072072;28;20400;-58
2022/01/24 04:09:38;;;;;;;1.98;1.75;;;9.80;81.30;;;;;;5061672;28;20481;-56
2022/01/24 04:12:05;;;;;;;3.58;2.40;;;9.80;81.30;;;;;;5052340;28;20045;-57
2022/01/24 04:14:41;;;;;;;2.45;2.00;;;9.90;81.30;;;;;;5061913;28;20115;-57
2022/01/24 04:22:01;;;;;;;2.30;2.10;;;9.80;81.30;;;;;;5071366;28;20048;-58
2022/01/24 04:24:27;;;;;;;2.28;1.88;;;9.80;81.20;;;;;;5071867;28;20056;-59
2022/01/24 04:26:53;;;;;;;2.88;2.20;;;9.80;81.30;;;;;;5071911;28;20040;-58
2022/01/24 04:29:19;;;;;;;2.00;1.77;;;9.90;81.30;;;;;;5072169;28;20150;-53
2022/01/24 04:31:45;;;;;;;2.53;2.08;;;9.80;81.30;;;;;;5071647;28;20045;-58
2022/01/24 04:34:11;;;;;;;2.22;2.00;;;9.80;81.30;;;;;;5071696;28;20074;-58
2022/01/24 04:36:36;;;;;;;2.35;1.80;;;9.80;81.20;;;;;;5071786;28;20549;-58
2022/01/24 04:39:04;;;;;;;2.75;2.40;;;9.90;81.30;;;;;;5053488;28;20447;-58
2022/01/24 04:41:35;;;;;;;2.72;2.38;;;9.80;81.20;;;;;;5071545;28;20051;-57
2022/01/24 04:56:39;;;;;;;2.30;2.10;;;9.80;81.20;;;;;;5071627;28;20052;-53
2022/01/24 04:59:05;;;;;;;2.65;2.20;;;9.80;81.20;;;;;;5070571;28;20492;-55
2022/01/24 05:01:31;;;;;;;2.10;1.90;;;9.80;81.20;;;;;;5071949;28;20070;-58
2022/01/24 05:03:57;;;;;;;2.70;2.30;;;9.80;81.20;;;;;;5071780;28;20565;-57
2022/01/24 05:06:23;;;;;;;2.28;2.05;;;9.80;81.20;;;;;;5070855;28;20091;-54
2022/01/24 05:08:49;;;;;;;2.42;2.10;;;9.80;81.30;;;;;;5071412;28;20106;-58
2022/01/24 05:11:20;;;;;;;2.25;2.03;;;9.90;81.30;;;;;;5071082;28;20826;-55
2022/01/24 05:24:35;;;;;;;2.80;2.10;;;9.80;81.20;;;;;;5071465;28;20055;-58
2022/01/24 05:27:00;;;;;;;2.85;2.55;;;9.90;81.30;;;;;;5070760;28;20045;-54
2022/01/24 05:29:27;;;;;;;2.47;2.08;;;9.80;81.30;;;;;;5071075;28;20063;-54
2022/01/24 05:31:53;;;;;;;2.47;2.28;;;9.80;81.20;;;;;;5071250;28;20044;-58
2022/01/24 05:34:19;;;;;;;3.47;2.35;;;9.80;81.20;;;;;;5070929;28;20052;-59
2022/01/24 05:36:45;;;;;;;2.95;2.40;;;9.80;81.20;;;;;;5071580;28;20043;-53
2022/01/24 05:39:11;;;;;;;2.53;2.10;;;9.80;81.20;;;;;;5071046;28;20500;-49
2022/01/24 05:41:38;;;;;;;2.50;2.28;;;9.80;81.20;;;;;;5070852;28;20102;-59
2022/01/24 05:44:05;;;;;;;2.88;2.42;;;9.80;81.20;;;;;;5070523;28;20481;-56
2022/01/24 05:46:30;;;;;;;2.38;2.10;;;9.80;81.20;;;;;;5071277;28;20041;-58
2022/01/24 05:48:56;;;;;;;2.97;2.50;;;9.80;81.20;;;;;;5071204;28;20036;-58
2022/01/24 05:51:22;;;;;;;3.22;2.40;;;9.80;81.20;;;;;;5070327;28;20052;-59
2022/01/24 05:53:48;;;;;;;3.28;2.58;;;9.80;81.20;;;;;;5071345;28;20113;-58
2022/01/24 05:56:14;;;;;;;3.90;2.45;;;9.80;81.20;;;;;;5070536;28;20144;-57
2022/01/24 05:58:39;;;;;;;3.00;2.70;;;9.80;81.20;;;;;;5071037;28;20041;-58
2022/01/24 06:01:05;;;;;;;3.05;2.60;;;9.80;81.20;;;;;;5070248;28;20041;-54
2022/01/24 06:03:30;;;;;;;3.08;2.55;;;9.80;81.20;;;;;;5070994;28;20823;-58
2022/01/24 06:05:56;;;;;;;3.50;2.42;;;9.80;81.20;;;;;;5073464;28;20047;-58
2022/01/24 06:08:22;;;;;;;2.88;2.42;;;9.80;81.20;;;;;;5074491;28;20098;-55
2022/01/24 06:10:48;;;;;;;3.33;2.58;;;9.80;81.20;;;;;;5074833;28;20807;-52
2022/01/24 06:13:15;;;;;;;2.40;2.15;;;9.80;81.20;;;;;;5074556;28;20048;-58
2022/01/24 06:15:42;;;;;;;3.42;2.53;;;9.80;81.20;;;;;;5074183;28;20409;-52
2022/01/24 06:18:08;;;;;;;3.40;2.53;;;9.80;81.20;;;;;;5074331;28;20044;-49
2022/01/24 06:20:34;;;;;;;2.92;2.40;;;9.80;81.20;;;;;;5074996;28;20047;-58
2022/01/24 06:22:59;;;;;;;3.25;2.78;;;9.80;81.20;;;;;;5073442;28;20040;-59
2022/01/24 06:25:25;;;;;;;3.10;2.78;;;9.80;81.20;;;;;;5074774;28;20072;-59
2022/01/24 06:27:52;;;;;;;3.20;2.60;;;9.80;81.20;;;;;;5074291;28;20496;-58
2022/01/24 06:30:18;;;;;;;2.88;2.53;;;9.80;81.20;;;;;;5074275;28;20496;-59
2022/01/24 06:32:43;;;;;;;3.10;2.42;;;9.80;81.20;;;;;;5074301;28;20047;-58
2022/01/24 06:35:10;;;;;;;3.63;2.65;;;9.80;81.20;;;;;;5073652;28;20043;-58
2022/01/24 06:37:37;;;;;;;3.65;2.78;;;9.80;81.20;;;;;;5074424;28;20032;-58
2022/01/24 06:40:05;;;;;;;3.00;2.60;;;9.80;81.20;;;;;;5073719;28;20056;-51
2022/01/24 06:42:30;;;;;;;3.35;2.70;;;9.80;81.20;;;;;;5074309;28;20396;-58
2022/01/24 06:44:56;;;;;;;3.42;2.60;;;9.80;81.20;;;;;;5061773;28;20116;-58
2022/01/24 06:47:22;;;;;;;3.40;2.80;;;9.80;81.20;;;;;;5056276;28;20033;-48
2022/01/24 06:49:49;;;;;;;3.22;2.65;;;9.80;81.20;;;;;;5054252;28;20080;-55
2022/01/24 06:52:15;;;;;;;4.05;2.70;;;9.80;81.20;;;;;;5066726;28;20370;-58
2022/01/24 06:54:42;;;;;;;3.38;2.63;;;9.80;81.20;;;;;;5074288;28;20105;-53
2022/01/24 06:57:11;;;;;;;3.53;3.00;;;9.80;81.20;;;;;;5073404;28;20044;-49
2022/01/24 06:59:41;;;;;;;2.95;2.53;;;9.80;81.20;;;;;;5073827;28;20044;-52
2022/01/24 07:02:08;;;;;;;2.95;2.30;;;10.00;81.30;;;;;;5072972;28;20041;-59
2022/01/24 07:04:36;;;;;;;3.38;3.08;;;9.80;81.20;;;;;;5073687;28;20489;-58
2022/01/24 07:07:03;;;;;;;3.65;2.85;;;9.80;81.20;;;;;;5073163;28;20052;-52
2022/01/24 07:09:28;;;;;;;3.03;2.70;;;9.80;81.20;;;;;;5073888;28;20052;-58
2022/01/24 07:11:54;;;;;;;3.33;2.85;;;9.80;81.20;;;;;;5073652;28;20033;-55
2022/01/24 07:14:20;;;;;;;3.78;3.22;;;9.80;81.20;;;;;;5072783;28;20389;-56
2022/01/24 07:19:26;;;;;;;3.25;2.88;;;9.80;81.10;;;;;;5073237;28;20572;-59
2022/01/24 07:21:52;;;;;;;2.92;2.63;;;9.80;81.20;;;;;;5073095;28;20090;-59
2022/01/24 07:24:18;;;;;;;3.67;2.92;;;9.80;81.20;;;;;;5073352;28;20059;-58
2022/01/24 07:26:44;;;;;;;3.78;2.78;;;9.80;81.20;;;;;;5073477;28;20412;-58
2022/01/24 07:29:09;;;;;;;3.33;3.03;;;9.80;81.20;;;;;;5072817;28;20495;-52
2022/01/24 07:31:35;;;;;;;3.75;2.92;;;9.80;81.20;;;;;;5073058;28;20047;-49
2022/01/24 07:34:01;;;;;;;3.40;2.83;;;9.80;81.10;;;;;;5072610;28;20066;-49
2022/01/24 07:36:27;;;;;;;3.78;2.88;;;9.90;81.20;;;;;;5073228;28;20488;-57
2022/01/24 07:38:52;;;;;;;3.63;3.17;;;9.80;81.10;;;;;;5072255;28;20044;-47
2022/01/24 07:41:25;;;;;;;3.45;2.70;;;9.80;81.20;;;;;;5072050;28;20109;-51
2022/01/24 07:43:51;;;;;;;3.97;2.90;;;9.80;81.20;;;;;;5072048;28;20040;-57
2022/01/24 07:46:17;;;;;;;2.95;2.38;;;9.80;81.20;;;;;;5070855;28;20044;-46
2022/01/24 07:48:43;;;;;;;3.03;2.72;;;9.80;81.10;;;;;;5054601;28;20113;-50
2022/01/24 07:51:09;;;;;;;3.10;2.60;;;9.80;81.20;;;;;;5072742;28;20044;-49
2022/01/24 07:53:34;;;;;;;3.42;2.85;;;9.80;81.10;;;;;;5072654;28;20469;-49
2022/01/24 07:56:00;;;;;;;3.78;3.08;;;9.80;81.20;;;;;;5072743;28;20040;-46
2022/01/24 07:58:26;;;;;;;3.92;2.88;;;9.80;81.10;;;;;;5072500;28;20115;-45
2022/01/24 08:00:52;;;;;;;4.07;3.05;;;9.80;81.10;;;;;;5072742;28;20048;-52
2022/01/24 08:03:17;;;;;;;4.03;3.15;;;9.80;81.20;;;;;;5072344;28;20109;-47
2022/01/24 08:05:43;;;;;;;3.53;2.88;;;9.70;81.10;;;;;;5072919;28;20047;-52
2022/01/24 08:08:09;;;;;;;3.65;3.10;;;9.80;81.20;;;;;;5071657;28;20408;-49
2022/01/24 08:10:35;;;;;;;3.83;3.20;;;9.80;81.20;;;;;;5071967;28;20044;-51
2022/01/24 08:13:02;;;;;;;3.70;3.17;;;9.80;81.20;;;;;;5071994;28;20048;-48
2022/01/24 08:15:28;;;;;;;3.45;2.97;;;9.80;81.20;;;;;;5071716;28;20141;-50
2022/01/24 08:17:53;;;;;;;3.65;2.80;;;9.80;81.20;;;;;;5072656;28;20087;-51
2022/01/24 08:20:22;;;;;;;3.53;2.90;;;9.80;81.10;;;;;;5071948;28;20105;-55
2022/01/24 08:22:48;;;;;;;3.70;3.15;;;9.80;81.20;;;;;;5072034;28;20469;-49
2022/01/24 08:25:15;;;;;;;3.53;2.95;;;9.80;81.10;;;;;;5071824;28;20057;-45
2022/01/24 08:27:40;;;;;;;4.20;3.30;;;9.80;81.10;;;;;;5071795;28;20043;-52
2022/01/24 08:30:09;;;;;;;4.07;2.78;;;9.80;81.10;;;;;;5071617;28;20127;-52
2022/01/24 08:32:35;;;;;;;4.60;3.47;;;9.80;81.10;;;;;;5071648;28;20062;-49
2022/01/24 08:35:01;;;;;;;3.35;2.70;;;9.80;81.10;;;;;;5071831;28;20045;-44
2022/01/24 08:37:27;;;;;;;3.10;2.75;;;9.80;81.10;;;;;;5071847;28;20494;-49
2022/01/24 08:39:53;;;;;;;2.67;2.47;;;9.80;81.10;;;;;;5071779;28;20048;-49
2022/01/24 08:47:30;;;;;;;3.88;3.20;;;9.80;81.10;;;;;;5066568;28;20040;-47
2022/01/24 08:49:58;;;;;;;4.38;3.53;;;9.80;81.10;;;;;;5071056;28;20059;-50
2022/01/24 08:52:27;;;;;;;3.47;2.80;;;9.80;81.10;;;;;;5069888;28;20477;-51
2022/01/24 08:54:53;;;;;;;4.32;2.90;;;9.80;81.10;;;;;;5070923;28;20048;-46
2022/01/24 08:57:25;;;;;;;13.02;10.07;;;9.80;81.10;;;;;;5070253;28;20075;-59
2022/01/24 08:59:51;;;;;;;10.10;7.07;;;9.80;79.10;;;;;;5071549;28;20052;-57
2022/01/24 09:02:17;;;;;;;8.07;6.80;;;9.70;79.20;;;;;;5071043;28;20044;-59
2022/01/24 09:04:42;;;;;;;8.20;7.15;;;9.70;79.40;;;;;;5071311;28;20044;-59
2022/01/24 09:07:09;;;;;;;10.07;7.60;;;9.70;79.50;;;;;;5071051;28;20412;-59
2022/01/24 09:09:36;;;;;;;9.38;7.20;;;9.60;79.50;;;;;;5071383;28;20045;-60
2022/01/24 09:12:04;;;;;;;9.77;7.45;;;9.60;79.50;;;;;;5071552;28;20048;-60
2022/01/24 09:14:29;;;;;;;8.98;6.97;;;9.70;79.60;;;;;;5071656;28;20047;-61
2022/01/24 09:16:55;;;;;;;10.75;7.18;;;9.60;79.60;;;;;;5053150;28;20127;-59
2022/01/24 09:19:21;;;;;;;10.00;7.72;;;9.60;79.70;;;;;;5048940;28;20052;-56
2022/01/24 09:21:47;;;;;;;10.55;7.90;;;9.60;79.60;;;;;;5070494;28;20483;-57
2022/01/24 09:24:13;;;;;;;8.93;7.53;;;9.60;79.70;;;;;;5067404;28;20044;-59
2022/01/24 09:26:38;;;;;;;15.70;11.00;;;9.60;79.70;;;;;;5088297;28;20111;-61
2022/01/24 09:29:04;;;;;;;12.82;10.15;;;9.60;78.60;;;;;;5069358;28;20492;-55
2022/01/24 09:31:30;;;;;;;11.88;9.27;;;9.50;78.70;;;;;;5070837;28;20087;-65
2022/01/24 09:33:56;;;;;;;11.07;9.07;;;9.50;78.90;;;;;;5070261;28;20127;-62
2022/01/24 09:36:23;;;;;;;12.23;9.88;;;9.50;79.10;;;;;;5070728;28;20519;-62
2022/01/24 09:38:49;;;;;;;10.75;8.82;;;9.60;80.00;;;;;;5088035;28;20082;-57
2022/01/24 09:41:15;;;;;;;13.48;9.18;;;9.50;79.40;;;;;;5069359;28;20712;-59
2022/01/24 09:43:41;;;;;;;11.52;8.68;;;9.50;79.60;;;;;;5070625;28;20529;-58
2022/01/24 09:46:08;;;;;;;11.00;9.13;;;9.50;79.60;;;;;;5070835;28;20052;-62
2022/01/24 09:48:36;;;;;;;10.70;9.00;;;9.60;79.70;;;;;;5052790;28;20056;-57
2022/01/24 09:51:02;;;;;;;11.80;10.07;;;9.60;79.80;;;;;;5070775;28;20522;-62
2022/01/24 09:53:27;;;;;;;11.77;8.63;;;9.60;79.90;;;;;;5070862;28;20116;-63
2022/01/24 09:55:53;;;;;;;11.48;9.45;;;9.60;79.90;;;;;;5052194;28;20044;-57
2022/01/24 09:58:19;;;;;;;11.77;8.85;;;9.60;80.00;;;;;;5069939;28;20036;-65
2022/01/24 10:00:46;;;;;;;12.63;9.15;;;9.60;80.00;;;;;;5070516;28;20086;-56
2022/01/24 10:03:12;;;;;;;12.43;8.98;;;9.60;80.10;;;;;;5069587;28;20094;-63
2022/01/24 10:05:39;;;;;;;11.57;8.95;;;9.60;80.20;;;;;;5070952;28;20389;-58
2022/01/24 10:08:14;;;;;;;11.80;8.93;;;9.70;80.20;;;;;;5069541;28;20084;-59
2022/01/24 10:10:52;;;;;;;11.50;9.73;;;9.60;80.20;;;;;;5070626;28;20564;-65
2022/01/24 10:19:03;;;;;;;10.93;8.75;;;9.60;80.30;;;;;;5075416;28;20519;-56
2022/01/24 10:21:29;;;;;;;12.00;8.75;;;9.60;80.30;;;;;;5060827;28;20057;-57
2022/01/24 10:23:56;;;;;;;10.98;8.90;;;9.60;80.30;;;;;;5065146;28;20059;-61
2022/01/24 10:26:24;;;;;;;11.52;9.15;;;9.60;80.30;;;;;;5055462;28;20060;-62
2022/01/24 10:28:50;;;;;;;10.43;8.70;;;9.60;80.30;;;;;;5072473;28;20037;-62
2022/01/24 10:31:24;;;;;;;11.55;9.52;;;9.80;80.50;;;;;;5073160;28;20062;-65
2022/01/24 10:34:23;;;;;;;11.10;8.95;;;9.70;80.40;;;;;;5071625;28;20523;-64
2022/01/24 10:36:52;;;;;;;13.30;9.70;;;9.70;80.40;;;;;;5072230;28;20496;-57
2022/01/24 10:39:29;;;;;;;12.30;9.32;;;9.70;80.50;;;;;;5070076;28;20044;-62
2022/01/24 10:44:48;;;;;;;11.63;8.73;;;9.70;80.40;;;;;;5071864;28;20413;-60
2022/01/24 10:47:18;;;;;;;11.25;8.88;;;9.70;80.50;;;;;;5054294;28;20041;-60
2022/01/24 10:49:45;;;;;;;12.75;9.30;;;9.70;80.50;;;;;;5073013;28;20090;-63
2022/01/24 10:52:14;;;;;;;11.15;8.80;;;9.70;80.50;;;;;;5061263;28;20040;-62
2022/01/24 10:54:40;;;;;;;11.00;9.27;;;9.70;80.50;;;;;;5073128;28;20052;-65
2022/01/24 10:57:06;;;;;;;11.90;9.02;;;9.70;80.50;;;;;;5072710;28;20105;-49
2022/01/24 10:59:34;;;;;;;12.30;9.05;;;9.70;80.50;;;;;;5072943;28;20405;-63
2022/01/24 11:02:03;;;;;;;9.48;8.48;;;9.70;80.50;;;;;;5072494;28;20078;-62
2022/01/24 11:04:30;;;;;;;10.18;8.65;;;9.70;80.50;;;;;;5073236;28;20120;-64
2022/01/24 11:06:59;;;;;;;11.45;9.38;;;9.70;80.50;;;;;;5072892;28;20045;-53
2022/01/24 11:09:32;;;;;;;10.95;8.82;;;9.70;80.50;;;;;;5073103;28;20053;-63
2022/01/24 11:12:02;;;;;;;11.70;8.95;;;9.70;80.50;;;;;;5072218;28;20044;-59
2022/01/24 11:14:31;;;;;;;12.98;8.98;;;9.70;80.50;;;;;;5072291;28;20059;-56
2022/01/24 11:16:59;;;;;;;9.55;8.55;;;9.70;80.50;;;;;;5073041;28;20063;-60
2022/01/24 11:21:53;;;;;;;11.38;9.05;;;9.80;80.60;;;;;;5092797;28;20048;-54
2022/01/24 11:24:26;;;;;;;13.52;9.20;;;9.70;80.50;;;;;;5092185;28;20407;-60
2022/01/24 11:26:52;;;;;;;12.13;9.35;;;9.70;80.50;;;;;;5092130;28;20086;-57
2022/01/24 11:29:19;;;;;;;10.88;9.18;;;9.70;80.50;;;;;;5073904;28;20571;-57
2022/01/24 11:32:08;;;;;;;12.43;9.15;;;9.70;80.60;;;;;;5092601;28;20052;-50
2022/01/24 11:34:38;;;;;;;11.50;8.98;;;9.70;80.50;;;;;;5091924;28;20047;-52
2022/01/24 11:37:07;;;;;;;11.20;8.77;;;9.70;80.50;;;;;;5092075;28;20116;-58
2022/01/24 11:39:35;;;;;;;11.88;8.90;;;9.70;80.50;;;;;;5092318;28;20043;-63
2022/01/24 11:42:02;;;;;;;11.05;8.65;;;9.60;80.50;;;;;;5074096;28;20044;-60
2022/01/24 11:44:48;;;;;;;11.65;8.75;;;9.80;80.60;;;;;;5086926;28;20374;-63
2022/01/24 11:47:23;;;;;;;12.52;9.35;;;9.80;80.60;;;;;;5071593;28;20040;-59
2022/01/24 11:49:53;;;;;;;11.95;8.90;;;9.80;80.60;;;;;;5071437;28;20120;-60
2022/01/24 11:52:29;;;;;;;12.27;9.15;;;9.80;80.60;;;;;;5070783;28;20114;-62
2022/01/24 11:55:15;;;;;;;13.02;9.82;;;9.70;80.60;;;;;;5071047;28;20540;-62
2022/01/24 11:57:49;;;;;;;12.68;9.55;;;9.80;80.60;;;;;;5059062;28;20037;-62
2022/01/24 12:00:16;;;;;;;11.25;8.82;;;9.80;80.60;;;;;;5070277;28;20052;-61
2022/01/24 12:02:42;;;;;;;11.63;8.77;;;9.70;80.60;;;;;;5070149;28;20032;-64
2022/01/24 12:05:22;;;;;;;11.25;8.93;;;9.70;80.60;;;;;;5070943;28;20520;-63
2022/01/24 12:07:58;;;;;;;10.73;8.70;;;9.80;80.70;;;;;;5071620;28;20489;-60
2022/01/24 12:10:34;;;;;;;10.90;8.13;;;9.70;80.60;;;;;;5054657;28;20060;-60
2022/01/24 12:13:03;;;;;;;12.23;8.65;;;9.80;80.70;;;;;;5071293;28;20138;-63
2022/01/24 12:15:38;;;;;;;12.63;9.02;;;9.70;80.60;;;;;;5071424;28;20051;-63
2022/01/24 12:18:12;;;;;;;11.85;9.07;;;9.80;80.70;;;;;;5071742;28;20550;-63
2022/01/24 12:20:40;;;;;;;12.18;9.57;;;9.70;80.60;;;;;;5092016;28;20058;-68
2022/01/24 12:23:24;;;;;;;12.40;9.60;;;9.70;80.60;;;;;;5071865;28;20049;-65
2022/01/24 12:26:05;;;;;;;12.35;9.43;;;9.80;80.60;;;;;;5069943;28;20131;-71
2022/01/24 12:28:43;;;;;;;11.77;8.98;;;9.80;80.60;;;;;;5071488;28;20045;-71
2022/01/24 12:31:20;;;;;;;11.05;8.45;;;9.80;80.70;;;;;;5070860;28;20450;-70
2022/01/24 12:33:54;;;;;;;11.43;8.48;;;9.80;80.60;;;;;;5071111;28;20048;-72
2022/01/24 12:36:39;;;;;;;10.17;7.80;;;9.80;80.70;;;;;;5070723;28;20055;-68
2022/01/24 12:39:26;;;;;;;11.02;8.65;;;9.80;80.60;;;;;;5070804;28;20386;-72
2022/01/24 12:41:58;;;;;;;12.25;9.07;;;9.80;80.60;;;;;;5071486;28;20087;-69
2022/01/24 12:47:03;;;;;;;12.15;8.40;;;9.70;80.60;;;;;;5070261;28;20044;-68
2022/01/24 12:49:30;;;;;;;12.45;8.80;;;9.80;80.70;;;;;;5071755;28;20055;-72
2022/01/24 12:51:59;;;;;;;10.90;8.50;;;9.80;80.70;;;;;;5071770;28;20036;-71
2022/01/24 12:54:30;;;;;;;26.08;17.45;;;9.80;80.70;;;;;;5069103;28;20036;-61
2022/01/24 12:57:08;;;;;;;21.98;15.82;;;9.80;79.40;;;;;;5053349;28;20041;-61
2022/01/24 12:59:35;;;;;;;15.57;11.65;;;9.70;78.40;;;;;;5071120;28;20028;-62
2022/01/24 13:02:03;;;;;;;17.13;12.80;;;9.60;79.50;;;;;;5071138;28;20075;-64
2022/01/24 13:04:35;;;;;;;17.38;12.60;;;9.60;79.20;;;;;;5052739;28;20400;-62
2022/01/24 13:07:02;;;;;;;18.70;12.43;;;9.60;79.30;;;;;;5051283;28;20045;-64
2022/01/24 13:09:28;;;;;;;18.50;13.73;;;9.70;79.40;;;;;;5051425;28;20084;-62
2022/01/24 13:12:04;;;;;;;18.40;13.00;;;9.70;79.50;;;;;;5051887;28;20049;-63
2022/01/24 13:14:42;;;;;;;19.27;13.57;;;9.70;79.60;;;;;;5051297;28;20048;-64
2022/01/24 13:25:25;;;;;;;20.08;13.77;;;9.70;79.90;;;;;;5050914;28;20489;-63
2022/01/24 13:27:53;;;;;;;;;;;9.70;79.90;;;;;;5051929;28;20382;-63
2022/01/24 13:30:24;;;;;;;20.15;13.68;;;9.70;80.00;;;;;;5062744;28;20001;-62
2022/01/24 13:32:52;;;;;;;17.77;13.43;;;9.70;80.00;;;;;;5070981;28;20055;-61
2022/01/24 13:35:31;;;;;;;19.08;13.48;;;9.70;80.00;;;;;;5070653;28;20048;-63
2022/01/24 13:38:20;;;;;;;18.30;12.95;;;9.70;80.10;;;;;;5069133;28;20048;-59
2022/01/24 13:41:00;;;;;;;18.30;13.68;;;9.80;80.20;;;;;;5043623;28;20147;-62
2022/01/24 13:43:47;;;;;;;18.98;12.60;;;9.70;80.10;;;;;;5057194;28;20044;-64
2022/01/24 13:46:40;;;;;;;18.35;13.00;;;9.70;80.10;;;;;;5087961;28;20142;-61
2022/01/24 13:49:12;;;;;;;17.45;12.73;;;9.70;80.10;;;;;;5070443;28;20040;-61
2022/01/24 13:51:47;;;;;;;15.88;12.57;;;9.70;80.20;;;;;;5070282;28;20044;-61
2022/01/24 13:54:17;;;;;;;;;;;9.70;80.20;;;;;;5070298;28;20051;-62
2022/01/24 13:56:54;;;;;;;15.55;12.48;;;9.80;80.30;;;;;;5074519;28;20277;-61
2022/01/24 13:59:25;;;;;;;16.00;11.35;;;9.70;80.30;;;;;;5086875;28;20036;-61
2022/01/24 14:01:57;;;;;;;37.08;20.08;;;9.70;80.30;;;;;;5071290;28;20053;-60
2022/01/24 14:04:27;;;;;;;23.80;16.35;;;9.70;78.80;;;;;;5070524;28;20048;-58
2022/01/24 14:06:59;;;;;;;27.08;17.55;;;9.70;78.60;;;;;;5071181;28;20048;-58
2022/01/24 14:10:03;;;;;;;24.02;15.15;;;9.70;78.80;;;;;;5070585;28;20052;-61
2022/01/24 14:12:47;;;;;;;20.02;14.52;;;9.60;78.90;;;;;;5070977;28;20048;-59
2022/01/24 14:20:43;;;;;;;21.48;15.18;;;9.60;79.50;;;;;;5028736;28;20050;-59
2022/01/24 14:23:21;;;;;;;20.00;14.80;;;9.60;79.60;;;;;;5028239;28;20088;-59
2022/01/24 14:25:46;;;;;;;19.80;14.88;;;9.60;79.60;;;;;;5012634;28;20050;-59
2022/01/24 14:28:13;;;;;;;22.52;14.82;;;9.60;79.70;;;;;;5031922;28;20051;-59
2022/01/24 14:30:41;;;;;;;20.38;14.23;;;9.60;79.80;;;;;;5032504;28;20041;-58
2022/01/24 14:33:19;;;;;;;19.05;13.70;;;9.60;79.90;;;;;;5031891;28;20122;-60
2022/01/24 14:35:54;;;;;;;20.23;14.10;;;9.60;80.00;;;;;;5032165;28;20068;-60
2022/01/24 14:38:48;;;;;;;21.65;14.18;;;9.70;80.10;;;;;;5032113;28;20045;-59
2022/01/24 14:41:18;;;;;;;19.63;14.57;;;9.60;80.10;;;;;;5029681;28;20061;-61
2022/01/24 14:46:38;;;;;;;18.45;13.40;;;9.60;80.10;;;;;;5030821;28;20093;-59
2022/01/24 14:49:09;;;;;;;19.30;13.77;;;9.70;80.20;;;;;;5011759;28;20133;-60
2022/01/24 14:51:40;;;;;;;19.90;14.45;;;9.70;80.20;;;;;;5020985;28;20045;-60
2022/01/24 14:54:08;;;;;;;17.58;13.60;;;9.70;80.20;;;;;;5034716;28;20060;-62
2022/01/24 14:56:36;;;;;;;18.13;13.35;;;9.70;80.30;;;;;;5073899;28;20041;-58
2022/01/24 14:59:05;;;;;;;19.88;13.88;;;9.70;80.30;;;;;;5073442;28;20055;-58
2022/01/24 15:01:31;;;;;;;18.67;13.73;;;9.70;80.30;;;;;;5073726;28;20044;-60
2022/01/24 15:03:57;;;;;;;18.20;13.15;;;9.70;80.30;;;;;;5073737;28;20040;-59
2022/01/24 15:06:24;;;;;;;17.60;13.05;;;9.70;80.30;;;;;;5073922;28;20135;-59
2022/01/24 15:08:52;;;;;;;18.88;13.15;;;9.70;80.30;;;;;;5073782;28;20041;-58
2022/01/24 15:11:21;;;;;;;18.10;13.43;;;9.70;80.30;;;;;;5073115;28;20079;-57
2022/01/24 15:14:01;;;;;;;18.20;13.73;;;9.70;80.30;;;;;;5073845;28;20049;-60
2022/01/24 15:24:37;;;;;;;19.10;13.35;;;9.70;80.30;;;;;;5073459;28;20045;-59
2022/01/24 15:27:03;;;;;;;17.90;13.50;;;9.70;80.30;;;;;;5072891;28;20416;-57
2022/01/24 15:29:30;;;;;;;16.15;12.60;;;9.70;80.30;;;;;;5073876;28;20048;-59